sensor_id;sensor_type;location;lat;lon;timestamp;P1;durP1;ratioP1;P2;durP2;ratioP2
10232;SDS011;5161;48.174;11.756;2024-03-02T00:01:24;13.30;;;11.17;;
10232;SDS011;5161;48.174;11.756;2024-03-02T00:03:50;14.40;;;11.77;;
10232;SDS011;5161;48.174;11.756;2024-03-02T00:06:18;13.17;;;11.10;;
10232;SDS011;5161;48.174;11.756;2024-03-02T00:08:45;13.00;;;11.13;;
10232;SDS011;5161;48.174;11.756;2024-03-02T00:11:11;15.40;;;11.83;;
10232;SDS011;5161;48.174;11.756;2024-03-02T00:13:39;15.47;;;10.87;;
10232;SDS011;5161;48.174;11.756;2024-03-02T00:16:04;11.70;;;10.30;;
10232;SDS011;5161;48.174;11.756;2024-03-02T00:18:31;10.70;;;9.60;;
10232;SDS011;5161;48.174;11.756;2024-03-02T00:20:58;12.47;;;10.37;;
10232;SDS011;5161;48.174;11.756;2024-03-02T00:23:27;12.47;;;10.03;;
10232;SDS011;5161;48.174;11.756;2024-03-02T00:25:56;12.97;;;10.53;;
10232;SDS011;5161;48.174;11.756;2024-03-02T00:33:27;12.50;;;9.77;;
10232;SDS011;5161;48.174;11.756;2024-03-02T00:35:56;11.10;;;10.00;;
10232;SDS011;5161;48.174;11.756;2024-03-02T00:38:22;12.30;;;10.17;;
10232;SDS011;5161;48.174;11.756;2024-03-02T00:40:48;12.33;;;9.80;;
10232;SDS011;5161;48.174;11.756;2024-03-02T00:43:56;11.43;;;9.77;;
10232;SDS011;5161;48.174;11.756;2024-03-02T00:46:13;13.27;;;9.87;;
10232;SDS011;5161;48.174;11.756;2024-03-02T00:51:26;11.63;;;9.80;;
10232;SDS011;5161;48.174;11.756;2024-03-02T00:53:55;12.20;;;9.63;;
10232;SDS011;5161;48.174;11.756;2024-03-02T00:56:26;13.33;;;9.90;;
10232;SDS011;5161;48.174;11.756;2024-03-02T00:58:52;12.70;;;9.90;;
10232;SDS011;5161;48.174;11.756;2024-03-02T01:01:18;10.93;;;9.73;;
10232;SDS011;5161;48.174;11.756;2024-03-02T01:03:44;11.13;;;9.43;;
10232;SDS011;5161;48.174;11.756;2024-03-02T01:06:10;10.80;;;9.70;;
10232;SDS011;5161;48.174;11.756;2024-03-02T01:08:36;12.40;;;10.10;;
10232;SDS011;5161;48.174;11.756;2024-03-02T01:11:02;10.93;;;9.83;;
10232;SDS011;5161;48.174;11.756;2024-03-02T01:13:29;11.13;;;9.77;;
10232;SDS011;5161;48.174;11.756;2024-03-02T01:15:55;11.23;;;9.60;;
10232;SDS011;5161;48.174;11.756;2024-03-02T01:18:21;10.93;;;9.60;;
10232;SDS011;5161;48.174;11.756;2024-03-02T01:20:47;13.03;;;10.40;;
10232;SDS011;5161;48.174;11.756;2024-03-02T01:23:13;11.70;;;10.47;;
10232;SDS011;5161;48.174;11.756;2024-03-02T01:25:39;10.53;;;9.43;;
10232;SDS011;5161;48.174;11.756;2024-03-02T01:28:05;11.17;;;9.87;;
10232;SDS011;5161;48.174;11.756;2024-03-02T01:30:30;10.63;;;9.53;;
10232;SDS011;5161;48.174;11.756;2024-03-02T01:32:56;12.13;;;9.67;;
10232;SDS011;5161;48.174;11.756;2024-03-02T01:35:24;11.83;;;9.53;;
10232;SDS011;5161;48.174;11.756;2024-03-02T01:37:50;10.97;;;9.80;;
10232;SDS011;5161;48.174;11.756;2024-03-02T01:40:15;13.00;;;10.00;;
10232;SDS011;5161;48.174;11.756;2024-03-02T01:42:41;11.07;;;9.80;;
10232;SDS011;5161;48.174;11.756;2024-03-02T01:45:08;11.50;;;10.13;;
10232;SDS011;5161;48.174;11.756;2024-03-02T01:47:34;11.23;;;10.03;;
10232;SDS011;5161;48.174;11.756;2024-03-02T01:50:00;10.90;;;9.30;;
10232;SDS011;5161;48.174;11.756;2024-03-02T01:52:26;12.20;;;10.20;;
10232;SDS011;5161;48.174;11.756;2024-03-02T01:54:52;11.40;;;10.20;;
10232;SDS011;5161;48.174;11.756;2024-03-02T01:57:18;11.07;;;10.00;;
10232;SDS011;5161;48.174;11.756;2024-03-02T01:59:44;11.93;;;10.17;;
10232;SDS011;5161;48.174;11.756;2024-03-02T02:02:10;11.53;;;9.90;;
10232;SDS011;5161;48.174;11.756;2024-03-02T02:04:35;11.20;;;9.97;;
10232;SDS011;5161;48.174;11.756;2024-03-02T02:07:01;10.90;;;9.70;;
10232;SDS011;5161;48.174;11.756;2024-03-02T02:09:26;12.90;;;9.83;;
10232;SDS011;5161;48.174;11.756;2024-03-02T02:11:52;10.93;;;9.77;;
10232;SDS011;5161;48.174;11.756;2024-03-02T02:14:18;12.40;;;10.37;;
10232;SDS011;5161;48.174;11.756;2024-03-02T02:16:43;12.00;;;10.47;;
10232;SDS011;5161;48.174;11.756;2024-03-02T02:19:09;12.77;;;10.13;;
10232;SDS011;5161;48.174;11.756;2024-03-02T02:21:35;12.77;;;10.07;;
10232;SDS011;5161;48.174;11.756;2024-03-02T02:24:01;12.53;;;10.13;;
10232;SDS011;5161;48.174;11.756;2024-03-02T02:26:28;12.23;;;10.53;;
10232;SDS011;5161;48.174;11.756;2024-03-02T02:28:54;12.17;;;10.47;;
10232;SDS011;5161;48.174;11.756;2024-03-02T02:31:20;12.93;;;10.73;;
10232;SDS011;5161;48.174;11.756;2024-03-02T02:33:46;11.43;;;10.17;;
10232;SDS011;5161;48.174;11.756;2024-03-02T02:36:11;11.70;;;10.50;;
10232;SDS011;5161;48.174;11.756;2024-03-02T02:38:41;11.73;;;10.57;;
10232;SDS011;5161;48.174;11.756;2024-03-02T02:41:11;12.60;;;11.30;;
10232;SDS011;5161;48.174;11.756;2024-03-02T02:43:36;13.43;;;11.03;;
10232;SDS011;5161;48.174;11.756;2024-03-02T02:46:02;12.00;;;10.70;;
10232;SDS011;5161;48.174;11.756;2024-03-02T02:48:27;13.77;;;11.23;;
10232;SDS011;5161;48.174;11.756;2024-03-02T02:50:53;12.43;;;11.10;;
10232;SDS011;5161;48.174;11.756;2024-03-02T02:53:18;13.70;;;11.17;;
10232;SDS011;5161;48.174;11.756;2024-03-02T02:55:44;13.00;;;11.00;;
10232;SDS011;5161;48.174;11.756;2024-03-02T02:58:09;15.07;;;11.37;;
10232;SDS011;5161;48.174;11.756;2024-03-02T03:00:35;12.10;;;10.77;;
10232;SDS011;5161;48.174;11.756;2024-03-02T03:03:01;13.47;;;11.20;;
10232;SDS011;5161;48.174;11.756;2024-03-02T03:05:27;14.40;;;11.80;;
10232;SDS011;5161;48.174;11.756;2024-03-02T03:07:52;13.50;;;11.50;;
10232;SDS011;5161;48.174;11.756;2024-03-02T03:10:18;13.07;;;11.47;;
10232;SDS011;5161;48.174;11.756;2024-03-02T03:12:46;13.53;;;11.20;;
10232;SDS011;5161;48.174;11.756;2024-03-02T03:15:12;13.53;;;11.80;;
10232;SDS011;5161;48.174;11.756;2024-03-02T03:17:38;13.57;;;12.17;;
10232;SDS011;5161;48.174;11.756;2024-03-02T03:20:04;14.17;;;12.10;;
10232;SDS011;5161;48.174;11.756;2024-03-02T03:22:30;14.33;;;12.03;;
10232;SDS011;5161;48.174;11.756;2024-03-02T03:24:57;14.57;;;12.30;;
10232;SDS011;5161;48.174;11.756;2024-03-02T03:27:22;13.80;;;11.70;;
10232;SDS011;5161;48.174;11.756;2024-03-02T03:29:48;16.13;;;12.20;;
10232;SDS011;5161;48.174;11.756;2024-03-02T03:32:13;14.53;;;11.87;;
10232;SDS011;5161;48.174;11.756;2024-03-02T03:34:39;13.87;;;12.13;;
10232;SDS011;5161;48.174;11.756;2024-03-02T03:37:05;14.87;;;12.17;;
10232;SDS011;5161;48.174;11.756;2024-03-02T03:39:31;15.57;;;12.43;;
10232;SDS011;5161;48.174;11.756;2024-03-02T03:41:58;14.93;;;12.33;;
10232;SDS011;5161;48.174;11.756;2024-03-02T03:44:24;14.90;;;11.80;;
10232;SDS011;5161;48.174;11.756;2024-03-02T03:46:49;16.00;;;12.33;;
10232;SDS011;5161;48.174;11.756;2024-03-02T03:49:15;15.57;;;11.80;;
10232;SDS011;5161;48.174;11.756;2024-03-02T03:51:40;15.20;;;12.20;;
10232;SDS011;5161;48.174;11.756;2024-03-02T03:54:06;13.37;;;11.83;;
10232;SDS011;5161;48.174;11.756;2024-03-02T03:56:32;16.13;;;12.30;;
10232;SDS011;5161;48.174;11.756;2024-03-02T03:58:57;14.73;;;11.90;;
10232;SDS011;5161;48.174;11.756;2024-03-02T04:01:24;14.27;;;12.17;;
10232;SDS011;5161;48.174;11.756;2024-03-02T04:03:50;15.33;;;12.20;;
10232;SDS011;5161;48.174;11.756;2024-03-02T04:06:15;15.50;;;11.83;;
10232;SDS011;5161;48.174;11.756;2024-03-02T04:08:42;15.87;;;12.13;;
10232;SDS011;5161;48.174;11.756;2024-03-02T04:11:08;16.23;;;12.60;;
10232;SDS011;5161;48.174;11.756;2024-03-02T04:13:33;16.10;;;12.90;;
10232;SDS011;5161;48.174;11.756;2024-03-02T04:15:59;16.80;;;13.10;;
10232;SDS011;5161;48.174;11.756;2024-03-02T04:18:25;16.27;;;12.87;;
10232;SDS011;5161;48.174;11.756;2024-03-02T04:20:50;14.27;;;11.97;;
10232;SDS011;5161;48.174;11.756;2024-03-02T04:23:16;13.93;;;11.90;;
10232;SDS011;5161;48.174;11.756;2024-03-02T04:25:41;16.77;;;12.63;;
10232;SDS011;5161;48.174;11.756;2024-03-02T04:28:07;15.60;;;12.87;;
10232;SDS011;5161;48.174;11.756;2024-03-02T04:30:32;16.23;;;12.40;;
10232;SDS011;5161;48.174;11.756;2024-03-02T04:32:58;15.20;;;12.47;;
10232;SDS011;5161;48.174;11.756;2024-03-02T04:35:24;15.27;;;12.77;;
10232;SDS011;5161;48.174;11.756;2024-03-02T04:37:50;15.17;;;12.37;;
10232;SDS011;5161;48.174;11.756;2024-03-02T04:40:16;17.00;;;13.00;;
10232;SDS011;5161;48.174;11.756;2024-03-02T04:42:42;14.10;;;11.83;;
10232;SDS011;5161;48.174;11.756;2024-03-02T04:45:08;15.67;;;13.00;;
10232;SDS011;5161;48.174;11.756;2024-03-02T04:47:33;16.73;;;13.67;;
10232;SDS011;5161;48.174;11.756;2024-03-02T04:49:59;17.93;;;13.80;;
10232;SDS011;5161;48.174;11.756;2024-03-02T04:52:24;15.17;;;13.40;;
10232;SDS011;5161;48.174;11.756;2024-03-02T04:54:50;17.90;;;14.40;;
10232;SDS011;5161;48.174;11.756;2024-03-02T04:57:34;16.90;;;14.47;;
10232;SDS011;5161;48.174;11.756;2024-03-02T04:59:59;18.07;;;14.73;;
10232;SDS011;5161;48.174;11.756;2024-03-02T05:02:25;18.20;;;15.03;;
10232;SDS011;5161;48.174;11.756;2024-03-02T05:04:50;18.30;;;14.57;;
10232;SDS011;5161;48.174;11.756;2024-03-02T05:07:16;18.87;;;14.60;;
10232;SDS011;5161;48.174;11.756;2024-03-02T05:09:42;19.00;;;15.23;;
10232;SDS011;5161;48.174;11.756;2024-03-02T05:12:07;17.03;;;14.50;;
10232;SDS011;5161;48.174;11.756;2024-03-02T05:14:51;18.53;;;14.47;;
10232;SDS011;5161;48.174;11.756;2024-03-02T05:17:17;17.97;;;14.10;;
10232;SDS011;5161;48.174;11.756;2024-03-02T05:19:42;17.77;;;14.47;;
10232;SDS011;5161;48.174;11.756;2024-03-02T05:22:08;18.87;;;14.93;;
10232;SDS011;5161;48.174;11.756;2024-03-02T05:24:33;16.30;;;13.63;;
10232;SDS011;5161;48.174;11.756;2024-03-02T05:26:59;18.50;;;14.70;;
10232;SDS011;5161;48.174;11.756;2024-03-02T05:29:24;16.47;;;14.30;;
10232;SDS011;5161;48.174;11.756;2024-03-02T05:31:50;17.33;;;14.63;;
10232;SDS011;5161;48.174;11.756;2024-03-02T05:34:15;18.03;;;14.83;;
10232;SDS011;5161;48.174;11.756;2024-03-02T05:36:41;17.07;;;14.37;;
10232;SDS011;5161;48.174;11.756;2024-03-02T05:39:06;17.30;;;13.80;;
10232;SDS011;5161;48.174;11.756;2024-03-02T05:41:34;16.67;;;14.23;;
10232;SDS011;5161;48.174;11.756;2024-03-02T05:44:00;18.00;;;14.60;;
10232;SDS011;5161;48.174;11.756;2024-03-02T05:46:26;18.97;;;14.50;;
10232;SDS011;5161;48.174;11.756;2024-03-02T05:48:52;16.93;;;14.23;;
10232;SDS011;5161;48.174;11.756;2024-03-02T05:51:17;17.10;;;14.70;;
10232;SDS011;5161;48.174;11.756;2024-03-02T05:53:43;18.80;;;14.50;;
10232;SDS011;5161;48.174;11.756;2024-03-02T05:56:09;19.33;;;15.10;;
10232;SDS011;5161;48.174;11.756;2024-03-02T05:58:34;17.57;;;14.93;;
10232;SDS011;5161;48.174;11.756;2024-03-02T06:01:15;18.83;;;15.80;;
10232;SDS011;5161;48.174;11.756;2024-03-02T06:03:40;20.17;;;16.13;;
10232;SDS011;5161;48.174;11.756;2024-03-02T06:06:06;20.47;;;15.90;;
10232;SDS011;5161;48.174;11.756;2024-03-02T06:08:31;19.90;;;15.83;;
10232;SDS011;5161;48.174;11.756;2024-03-02T06:10:57;18.17;;;15.37;;
10232;SDS011;5161;48.174;11.756;2024-03-02T06:13:23;17.93;;;15.37;;
10232;SDS011;5161;48.174;11.756;2024-03-02T06:15:50;21.57;;;16.57;;
10232;SDS011;5161;48.174;11.756;2024-03-02T06:18:16;21.53;;;16.13;;
10232;SDS011;5161;48.174;11.756;2024-03-02T06:20:41;20.20;;;16.47;;
10232;SDS011;5161;48.174;11.756;2024-03-02T06:23:07;20.77;;;16.80;;
10232;SDS011;5161;48.174;11.756;2024-03-02T06:25:34;21.10;;;16.23;;
10232;SDS011;5161;48.174;11.756;2024-03-02T06:28:00;22.03;;;17.13;;
10232;SDS011;5161;48.174;11.756;2024-03-02T06:30:25;19.37;;;16.03;;
10232;SDS011;5161;48.174;11.756;2024-03-02T06:32:51;19.97;;;16.13;;
10232;SDS011;5161;48.174;11.756;2024-03-02T06:35:16;22.67;;;16.20;;
10232;SDS011;5161;48.174;11.756;2024-03-02T06:37:42;19.73;;;15.33;;
10232;SDS011;5161;48.174;11.756;2024-03-02T06:40:08;18.17;;;15.10;;
10232;SDS011;5161;48.174;11.756;2024-03-02T06:42:34;21.77;;;16.97;;
10232;SDS011;5161;48.174;11.756;2024-03-02T06:45:00;18.90;;;15.93;;
10232;SDS011;5161;48.174;11.756;2024-03-02T06:47:26;21.03;;;17.33;;
10232;SDS011;5161;48.174;11.756;2024-03-02T06:49:51;21.60;;;17.17;;
10232;SDS011;5161;48.174;11.756;2024-03-02T06:52:18;24.50;;;18.30;;
10232;SDS011;5161;48.174;11.756;2024-03-02T06:54:45;21.10;;;16.80;;
10232;SDS011;5161;48.174;11.756;2024-03-02T06:57:10;23.53;;;18.23;;
10232;SDS011;5161;48.174;11.756;2024-03-02T06:59:36;22.07;;;17.50;;
10232;SDS011;5161;48.174;11.756;2024-03-02T07:02:02;19.77;;;16.60;;
10232;SDS011;5161;48.174;11.756;2024-03-02T07:04:27;22.77;;;17.20;;
10232;SDS011;5161;48.174;11.756;2024-03-02T07:06:53;19.07;;;16.87;;
10232;SDS011;5161;48.174;11.756;2024-03-02T07:09:19;22.63;;;18.00;;
10232;SDS011;5161;48.174;11.756;2024-03-02T07:11:47;20.90;;;17.20;;
10232;SDS011;5161;48.174;11.756;2024-03-02T07:14:13;21.70;;;17.20;;
10232;SDS011;5161;48.174;11.756;2024-03-02T07:16:39;22.90;;;16.73;;
10232;SDS011;5161;48.174;11.756;2024-03-02T07:19:05;21.33;;;16.70;;
10232;SDS011;5161;48.174;11.756;2024-03-02T07:21:31;23.57;;;17.57;;
10232;SDS011;5161;48.174;11.756;2024-03-02T07:23:58;22.33;;;17.80;;
10232;SDS011;5161;48.174;11.756;2024-03-02T07:26:24;21.90;;;17.60;;
10232;SDS011;5161;48.174;11.756;2024-03-02T07:28:50;21.67;;;17.70;;
10232;SDS011;5161;48.174;11.756;2024-03-02T07:31:16;21.50;;;17.70;;
10232;SDS011;5161;48.174;11.756;2024-03-02T07:33:43;22.80;;;18.37;;
10232;SDS011;5161;48.174;11.756;2024-03-02T07:36:10;24.33;;;17.77;;
10232;SDS011;5161;48.174;11.756;2024-03-02T07:38:36;21.67;;;17.87;;
10232;SDS011;5161;48.174;11.756;2024-03-02T07:41:02;20.97;;;14.80;;
10232;SDS011;5161;48.174;11.756;2024-03-02T07:43:29;20.20;;;15.67;;
10232;SDS011;5161;48.174;11.756;2024-03-02T07:45:56;21.73;;;16.53;;
10232;SDS011;5161;48.174;11.756;2024-03-02T07:48:22;22.90;;;17.90;;
10232;SDS011;5161;48.174;11.756;2024-03-02T07:50:47;22.30;;;17.90;;
10232;SDS011;5161;48.174;11.756;2024-03-02T07:53:13;23.13;;;17.83;;
10232;SDS011;5161;48.174;11.756;2024-03-02T07:55:39;23.70;;;17.50;;
10232;SDS011;5161;48.174;11.756;2024-03-02T07:58:05;22.90;;;18.03;;
10232;SDS011;5161;48.174;11.756;2024-03-02T08:00:31;22.40;;;17.27;;
10232;SDS011;5161;48.174;11.756;2024-03-02T08:02:57;22.00;;;18.33;;
10232;SDS011;5161;48.174;11.756;2024-03-02T08:05:23;25.83;;;19.60;;
10232;SDS011;5161;48.174;11.756;2024-03-02T08:07:49;23.77;;;18.67;;
10232;SDS011;5161;48.174;11.756;2024-03-02T08:10:17;24.10;;;18.10;;
10232;SDS011;5161;48.174;11.756;2024-03-02T08:12:44;23.80;;;18.90;;
10232;SDS011;5161;48.174;11.756;2024-03-02T08:15:09;27.10;;;18.83;;
10232;SDS011;5161;48.174;11.756;2024-03-02T08:17:35;25.23;;;19.17;;
10232;SDS011;5161;48.174;11.756;2024-03-02T08:20:00;23.20;;;19.03;;
10232;SDS011;5161;48.174;11.756;2024-03-02T08:22:27;25.20;;;19.13;;
10232;SDS011;5161;48.174;11.756;2024-03-02T08:24:52;25.70;;;19.57;;
10232;SDS011;5161;48.174;11.756;2024-03-02T08:27:19;26.20;;;20.13;;
10232;SDS011;5161;48.174;11.756;2024-03-02T08:29:45;25.60;;;21.03;;
10232;SDS011;5161;48.174;11.756;2024-03-02T08:32:10;26.27;;;20.50;;
10232;SDS011;5161;48.174;11.756;2024-03-02T08:34:36;28.23;;;21.50;;
10232;SDS011;5161;48.174;11.756;2024-03-02T08:37:02;25.70;;;20.30;;
10232;SDS011;5161;48.174;11.756;2024-03-02T08:39:28;27.43;;;20.63;;
10232;SDS011;5161;48.174;11.756;2024-03-02T08:41:54;26.73;;;20.93;;
10232;SDS011;5161;48.174;11.756;2024-03-02T08:44:19;27.60;;;20.87;;
10232;SDS011;5161;48.174;11.756;2024-03-02T08:46:45;27.63;;;21.10;;
10232;SDS011;5161;48.174;11.756;2024-03-02T08:49:11;28.87;;;21.37;;
10232;SDS011;5161;48.174;11.756;2024-03-02T08:51:37;30.97;;;21.20;;
10232;SDS011;5161;48.174;11.756;2024-03-02T08:54:03;28.40;;;20.93;;
10232;SDS011;5161;48.174;11.756;2024-03-02T08:56:29;29.47;;;22.23;;
10232;SDS011;5161;48.174;11.756;2024-03-02T08:58:55;27.23;;;21.10;;
10232;SDS011;5161;48.174;11.756;2024-03-02T09:01:21;31.67;;;21.37;;
10232;SDS011;5161;48.174;11.756;2024-03-02T09:03:46;31.67;;;22.23;;
10232;SDS011;5161;48.174;11.756;2024-03-02T09:06:14;31.67;;;21.80;;
10232;SDS011;5161;48.174;11.756;2024-03-02T09:08:41;29.87;;;22.70;;
10232;SDS011;5161;48.174;11.756;2024-03-02T09:11:08;31.43;;;23.23;;
10232;SDS011;5161;48.174;11.756;2024-03-02T09:13:38;33.97;;;24.67;;
10232;SDS011;5161;48.174;11.756;2024-03-02T09:16:04;33.53;;;23.70;;
10232;SDS011;5161;48.174;11.756;2024-03-02T09:18:30;33.40;;;23.60;;
10232;SDS011;5161;48.174;11.756;2024-03-02T09:20:56;32.40;;;22.30;;
10232;SDS011;5161;48.174;11.756;2024-03-02T09:23:21;31.17;;;22.33;;
10232;SDS011;5161;48.174;11.756;2024-03-02T09:25:47;31.27;;;22.07;;
10232;SDS011;5161;48.174;11.756;2024-03-02T09:28:13;29.30;;;21.17;;
10232;SDS011;5161;48.174;11.756;2024-03-02T09:30:40;30.27;;;21.67;;
10232;SDS011;5161;48.174;11.756;2024-03-02T09:33:06;28.53;;;20.70;;
10232;SDS011;5161;48.174;11.756;2024-03-02T09:35:32;28.60;;;19.97;;
10232;SDS011;5161;48.174;11.756;2024-03-02T09:37:57;28.00;;;20.77;;
10232;SDS011;5161;48.174;11.756;2024-03-02T09:40:23;30.37;;;20.47;;
10232;SDS011;5161;48.174;11.756;2024-03-02T09:42:49;29.93;;;21.07;;
10232;SDS011;5161;48.174;11.756;2024-03-02T09:45:26;28.20;;;20.97;;
10232;SDS011;5161;48.174;11.756;2024-03-02T09:47:52;29.73;;;20.87;;
10232;SDS011;5161;48.174;11.756;2024-03-02T09:50:18;27.83;;;21.00;;
10232;SDS011;5161;48.174;11.756;2024-03-02T09:52:43;28.97;;;20.73;;
10232;SDS011;5161;48.174;11.756;2024-03-02T09:55:13;29.80;;;20.90;;
10232;SDS011;5161;48.174;11.756;2024-03-02T09:57:40;30.80;;;21.53;;
10232;SDS011;5161;48.174;11.756;2024-03-02T10:00:07;30.47;;;20.80;;
10232;SDS011;5161;48.174;11.756;2024-03-02T10:02:33;27.10;;;20.30;;
10232;SDS011;5161;48.174;11.756;2024-03-02T10:04:59;29.40;;;20.53;;
10232;SDS011;5161;48.174;11.756;2024-03-02T10:07:24;28.20;;;20.43;;
10232;SDS011;5161;48.174;11.756;2024-03-02T10:09:50;29.93;;;20.70;;
10232;SDS011;5161;48.174;11.756;2024-03-02T10:12:17;30.37;;;20.97;;
10232;SDS011;5161;48.174;11.756;2024-03-02T10:14:43;30.83;;;21.73;;
10232;SDS011;5161;48.174;11.756;2024-03-02T10:17:13;29.27;;;20.53;;
10232;SDS011;5161;48.174;11.756;2024-03-02T10:19:40;28.33;;;20.37;;
10232;SDS011;5161;48.174;11.756;2024-03-02T10:22:09;28.37;;;20.10;;
10232;SDS011;5161;48.174;11.756;2024-03-02T10:24:36;27.83;;;20.57;;
10232;SDS011;5161;48.174;11.756;2024-03-02T10:27:05;29.87;;;21.07;;
10232;SDS011;5161;48.174;11.756;2024-03-02T10:29:51;29.70;;;20.93;;
10232;SDS011;5161;48.174;11.756;2024-03-02T10:32:17;29.87;;;20.83;;
10232;SDS011;5161;48.174;11.756;2024-03-02T10:34:44;31.50;;;20.70;;
10232;SDS011;5161;48.174;11.756;2024-03-02T10:37:11;31.07;;;21.23;;
10232;SDS011;5161;48.174;11.756;2024-03-02T10:39:37;28.10;;;19.97;;
10232;SDS011;5161;48.174;11.756;2024-03-02T10:42:07;32.17;;;22.97;;
10232;SDS011;5161;48.174;11.756;2024-03-02T10:44:33;29.07;;;21.80;;
10232;SDS011;5161;48.174;11.756;2024-03-02T10:47:00;29.63;;;19.60;;
10232;SDS011;5161;48.174;11.756;2024-03-02T10:49:29;30.27;;;20.73;;
10232;SDS011;5161;48.174;11.756;2024-03-02T10:51:56;29.63;;;21.63;;
10232;SDS011;5161;48.174;11.756;2024-03-02T10:54:22;28.93;;;21.27;;
10232;SDS011;5161;48.174;11.756;2024-03-02T10:56:51;27.47;;;21.03;;
10232;SDS011;5161;48.174;11.756;2024-03-02T10:59:31;30.33;;;21.00;;
10232;SDS011;5161;48.174;11.756;2024-03-02T11:01:59;26.30;;;19.63;;
10232;SDS011;5161;48.174;11.756;2024-03-02T11:04:26;27.63;;;19.90;;
10232;SDS011;5161;48.174;11.756;2024-03-02T11:06:58;26.93;;;19.43;;
10232;SDS011;5161;48.174;11.756;2024-03-02T11:09:35;27.57;;;19.60;;
10232;SDS011;5161;48.174;11.756;2024-03-02T11:15:19;24.73;;;18.10;;
10232;SDS011;5161;48.174;11.756;2024-03-02T11:17:50;26.90;;;19.27;;
10232;SDS011;5161;48.174;11.756;2024-03-02T11:20:16;23.90;;;18.13;;
10232;SDS011;5161;48.174;11.756;2024-03-02T11:22:44;26.13;;;19.40;;
10232;SDS011;5161;48.174;11.756;2024-03-02T11:25:22;24.83;;;19.00;;
10232;SDS011;5161;48.174;11.756;2024-03-02T11:33:03;23.37;;;17.20;;
10232;SDS011;5161;48.174;11.756;2024-03-02T11:35:35;25.23;;;19.03;;
10232;SDS011;5161;48.174;11.756;2024-03-02T11:38:02;28.40;;;17.50;;
10232;SDS011;5161;48.174;11.756;2024-03-02T11:40:28;21.97;;;16.53;;
10232;SDS011;5161;48.174;11.756;2024-03-02T11:42:55;20.97;;;16.63;;
10232;SDS011;5161;48.174;11.756;2024-03-02T11:45:24;23.67;;;17.77;;
10232;SDS011;5161;48.174;11.756;2024-03-02T11:47:54;24.13;;;18.50;;
10232;SDS011;5161;48.174;11.756;2024-03-02T11:50:30;22.63;;;16.90;;
10232;SDS011;5161;48.174;11.756;2024-03-02T11:53:00;28.63;;;19.10;;
10232;SDS011;5161;48.174;11.756;2024-03-02T11:55:26;23.63;;;18.67;;
10232;SDS011;5161;48.174;11.756;2024-03-02T11:57:54;24.60;;;18.80;;
10232;SDS011;5161;48.174;11.756;2024-03-02T12:00:20;24.47;;;18.37;;
10232;SDS011;5161;48.174;11.756;2024-03-02T12:02:47;26.57;;;19.60;;
10232;SDS011;5161;48.174;11.756;2024-03-02T12:05:29;21.33;;;17.20;;
10232;SDS011;5161;48.174;11.756;2024-03-02T12:07:56;20.83;;;17.57;;
10232;SDS011;5161;48.174;11.756;2024-03-02T12:10:22;18.70;;;15.43;;
10232;SDS011;5161;48.174;11.756;2024-03-02T12:12:54;20.13;;;15.70;;
10232;SDS011;5161;48.174;11.756;2024-03-02T12:15:31;19.17;;;14.70;;
10232;SDS011;5161;48.174;11.756;2024-03-02T12:17:59;18.30;;;15.03;;
10232;SDS011;5161;48.174;11.756;2024-03-02T12:20:26;26.10;;;17.87;;
10232;SDS011;5161;48.174;11.756;2024-03-02T12:22:54;19.60;;;16.70;;
10232;SDS011;5161;48.174;11.756;2024-03-02T12:25:20;19.07;;;16.67;;
10232;SDS011;5161;48.174;11.756;2024-03-02T12:27:47;20.63;;;16.93;;
10232;SDS011;5161;48.174;11.756;2024-03-02T12:30:16;20.47;;;16.80;;
10232;SDS011;5161;48.174;11.756;2024-03-02T12:32:42;20.80;;;17.00;;
10232;SDS011;5161;48.174;11.756;2024-03-02T12:35:09;22.17;;;16.97;;
10232;SDS011;5161;48.174;11.756;2024-03-02T12:37:46;21.17;;;17.33;;
10232;SDS011;5161;48.174;11.756;2024-03-02T12:40:14;22.63;;;18.43;;
10232;SDS011;5161;48.174;11.756;2024-03-02T12:42:43;23.67;;;18.30;;
10232;SDS011;5161;48.174;11.756;2024-03-02T12:45:09;23.07;;;18.10;;
10232;SDS011;5161;48.174;11.756;2024-03-02T12:47:36;24.20;;;19.13;;
10232;SDS011;5161;48.174;11.756;2024-03-02T12:50:03;24.77;;;20.23;;
10232;SDS011;5161;48.174;11.756;2024-03-02T12:52:29;23.43;;;19.53;;
10232;SDS011;5161;48.174;11.756;2024-03-02T12:54:55;22.40;;;19.20;;
10232;SDS011;5161;48.174;11.756;2024-03-02T12:57:30;25.60;;;20.57;;
10232;SDS011;5161;48.174;11.756;2024-03-02T13:00:00;25.40;;;19.97;;
10232;SDS011;5161;48.174;11.756;2024-03-02T13:02:34;24.27;;;20.43;;
10232;SDS011;5161;48.174;11.756;2024-03-02T13:05:00;27.07;;;21.67;;
10232;SDS011;5161;48.174;11.756;2024-03-02T13:07:26;25.60;;;20.63;;
10232;SDS011;5161;48.174;11.756;2024-03-02T13:09:52;24.47;;;20.27;;
10232;SDS011;5161;48.174;11.756;2024-03-02T13:12:21;24.13;;;20.57;;
10232;SDS011;5161;48.174;11.756;2024-03-02T13:14:52;22.73;;;18.60;;
10232;SDS011;5161;48.174;11.756;2024-03-02T13:17:18;25.67;;;20.97;;
10232;SDS011;5161;48.174;11.756;2024-03-02T13:19:53;26.03;;;20.43;;
10232;SDS011;5161;48.174;11.756;2024-03-02T13:22:23;25.33;;;20.30;;
10232;SDS011;5161;48.174;11.756;2024-03-02T13:24:49;21.20;;;17.17;;
10232;SDS011;5161;48.174;11.756;2024-03-02T13:27:15;20.13;;;16.90;;
10232;SDS011;5161;48.174;11.756;2024-03-02T13:29:44;21.53;;;17.33;;
10232;SDS011;5161;48.174;11.756;2024-03-02T13:32:10;22.93;;;19.30;;
10232;SDS011;5161;48.174;11.756;2024-03-02T13:34:35;21.70;;;17.47;;
10232;SDS011;5161;48.174;11.756;2024-03-02T13:37:03;22.43;;;18.90;;
10232;SDS011;5161;48.174;11.756;2024-03-02T13:39:30;27.23;;;19.40;;
10232;SDS011;5161;48.174;11.756;2024-03-02T13:42:04;22.90;;;18.67;;
10232;SDS011;5161;48.174;11.756;2024-03-02T13:44:33;21.87;;;18.97;;
10232;SDS011;5161;48.174;11.756;2024-03-02T13:47:02;19.80;;;16.70;;
10232;SDS011;5161;48.174;11.756;2024-03-02T13:49:28;21.83;;;17.67;;
10232;SDS011;5161;48.174;11.756;2024-03-02T13:51:59;19.77;;;16.93;;
10232;SDS011;5161;48.174;11.756;2024-03-02T13:54:25;18.83;;;16.30;;
10232;SDS011;5161;48.174;11.756;2024-03-02T13:56:51;23.30;;;18.27;;
10232;SDS011;5161;48.174;11.756;2024-03-02T13:59:17;20.77;;;16.70;;
10232;SDS011;5161;48.174;11.756;2024-03-02T14:01:43;19.57;;;15.73;;
10232;SDS011;5161;48.174;11.756;2024-03-02T14:04:09;18.10;;;15.27;;
10232;SDS011;5161;48.174;11.756;2024-03-02T14:06:35;19.87;;;15.97;;
10232;SDS011;5161;48.174;11.756;2024-03-02T14:09:00;24.47;;;17.87;;
10232;SDS011;5161;48.174;11.756;2024-03-02T14:11:26;22.93;;;17.53;;
10232;SDS011;5161;48.174;11.756;2024-03-02T14:13:52;20.43;;;16.57;;
10232;SDS011;5161;48.174;11.756;2024-03-02T14:16:19;22.73;;;18.07;;
10232;SDS011;5161;48.174;11.756;2024-03-02T14:18:45;21.37;;;16.37;;
10232;SDS011;5161;48.174;11.756;2024-03-02T14:21:11;21.60;;;15.93;;
10232;SDS011;5161;48.174;11.756;2024-03-02T14:23:37;21.23;;;16.20;;
10232;SDS011;5161;48.174;11.756;2024-03-02T14:26:02;18.70;;;15.73;;
10232;SDS011;5161;48.174;11.756;2024-03-02T14:28:28;20.07;;;16.03;;
10232;SDS011;5161;48.174;11.756;2024-03-02T14:30:54;19.33;;;16.53;;
10232;SDS011;5161;48.174;11.756;2024-03-02T14:33:19;19.53;;;17.40;;
10232;SDS011;5161;48.174;11.756;2024-03-02T14:35:46;21.07;;;17.80;;
10232;SDS011;5161;48.174;11.756;2024-03-02T14:38:12;21.00;;;18.73;;